Time;durP1;ratioP1;P1;durP2;ratioP2;P2;SDS_P1;SDS_P2;PMS_P1;PMS_P2;Temp;Humidity;BMP_temperature;BMP_pressure;BME280_temperature;BME280_humidity;BME280_pressure;Samples;Min_cycle;Max_cycle;Signal;HPM_P1;HPM_P2
2023/04/11 05:02:43;;;;;;;1.52;0.32;;;10.00;99.90;;;;;;5306131;23;20074;-72
2023/04/11 05:05:12;;;;;;;1.63;0.30;;;9.80;99.90;;;;;;4928018;29;20239;-74
2023/04/11 05:07:39;;;;;;;3.10;0.47;;;9.60;99.90;;;;;;4944081;29;20285;-74
2023/04/11 05:10:05;;;;;;;4.88;0.50;;;9.30;99.90;;;;;;4938301;29;20024;-73
2023/04/11 05:12:32;;;;;;;2.58;0.50;;;9.10;99.90;;;;;;4924787;29;20028;-74
2023/04/11 05:15:03;;;;;;;4.65;0.55;;;8.90;99.90;;;;;;4925783;29;20123;-74
2023/04/11 05:17:30;;;;;;;3.38;0.57;;;8.80;99.90;;;;;;4925235;29;20027;-74
2023/04/11 05:19:56;;;;;;;2.30;0.45;;;8.70;99.90;;;;;;4942241;29;20059;-73
2023/04/11 05:22:23;;;;;;;4.10;0.70;;;8.60;99.90;;;;;;4943757;29;20099;-73
2023/04/11 05:24:52;;;;;;;4.45;0.45;;;8.40;99.90;;;;;;4944437;29;20095;-74
2023/04/11 05:27:18;;;;;;;4.78;1.00;;;8.30;99.90;;;;;;4945878;29;20027;-73
2023/04/11 05:29:45;;;;;;;2.30;0.45;;;8.20;99.90;;;;;;4944186;29;20106;-73
2023/04/11 05:32:12;;;;;;;2.35;0.75;;;8.10;99.90;;;;;;4928825;29;20253;-74
2023/04/11 05:34:53;;;;;;;3.97;1.02;;;8.00;99.90;;;;;;4928158;29;20036;-74
2023/04/11 05:37:25;;;;;;;4.28;1.23;;;8.00;99.90;;;;;;4940884;29;20047;-74
2023/04/11 05:39:51;;;;;;;2.58;0.70;;;7.90;99.90;;;;;;4926758;29;20043;-73
2023/04/11 05:42:17;;;;;;;2.92;0.68;;;7.90;99.90;;;;;;4925464;29;20040;-74
2023/04/11 05:44:43;;;;;;;4.43;0.80;;;7.90;99.90;;;;;;4925950;29;20332;-74
2023/04/11 05:47:10;;;;;;;7.80;1.15;;;7.90;99.90;;;;;;4926426;29;20020;-73
2023/04/11 05:49:36;;;;;;;2.50;0.60;;;8.00;99.90;;;;;;4924313;29;20043;-74
2023/04/11 05:52:02;;;;;;;2.25;0.50;;;8.00;99.90;;;;;;4925445;29;20036;-73
2023/04/11 05:54:35;;;;;;;2.83;0.50;;;8.10;99.90;;;;;;4925999;29;20077;-74
2023/04/11 05:57:02;;;;;;;2.70;0.50;;;8.20;99.90;;;;;;4926099;29;20024;-73
2023/04/11 05:59:30;;;;;;;2.03;0.50;;;8.10;99.90;;;;;;4925510;29;20103;-73
2023/04/11 06:01:57;;;;;;;2.75;0.63;;;8.20;99.90;;;;;;4921524;29;20048;-73
2023/04/11 06:04:23;;;;;;;5.40;0.70;;;8.20;99.90;;;;;;4921200;29;20132;-74
2023/04/11 06:06:50;;;;;;;2.00;0.60;;;8.20;99.90;;;;;;4906000;29;20045;-74
2023/04/11 06:09:16;;;;;;;2.10;0.70;;;8.30;99.90;;;;;;4906210;29;20028;-73
2023/04/11 06:11:42;;;;;;;2.35;0.50;;;8.30;99.90;;;;;;4905768;29;20044;-74
2023/04/11 06:14:08;;;;;;;2.20;0.57;;;8.30;99.90;;;;;;4921755;29;20366;-73
2023/04/11 06:16:37;;;;;;;2.90;0.60;;;8.30;99.90;;;;;;4905859;29;20040;-74
2023/04/11 06:19:06;;;;;;;2.83;0.60;;;8.40;99.90;;;;;;4890810;29;20063;-74
2023/04/11 06:21:41;;;;;;;5.10;1.00;;;8.40;99.90;;;;;;4905480;29;20024;-73
2023/04/11 06:24:11;;;;;;;2.97;0.60;;;8.50;99.90;;;;;;4905940;29;20060;-73
2023/04/11 06:26:38;;;;;;;3.30;0.52;;;8.60;99.90;;;;;;4905519;29;20036;-73
2023/04/11 06:29:26;;;;;;;2.55;0.60;;;8.60;99.90;;;;;;4905850;29;20031;-73
2023/04/11 06:31:57;;;;;;;2.08;0.50;;;8.60;99.90;;;;;;4907012;29;20319;-73
2023/04/11 06:34:29;;;;;;;3.72;0.60;;;8.70;99.90;;;;;;4906284;29;20033;-74
2023/04/11 06:37:02;;;;;;;2.90;0.70;;;8.70;99.90;;;;;;4903445;29;20310;-74
2023/04/11 06:42:15;;;;;;;4.38;0.70;;;8.70;99.90;;;;;;4906266;29;20366;-74
2023/04/11 06:44:50;;;;;;;2.20;0.70;;;8.80;99.90;;;;;;4908759;29;20031;-74
2023/04/11 06:47:19;;;;;;;3.33;0.40;;;8.80;99.90;;;;;;4924562;29;20306;-74
2023/04/11 06:49:46;;;;;;;2.88;0.60;;;8.80;99.90;;;;;;4908456;29;20103;-74
2023/04/11 06:52:13;;;;;;;2.25;0.50;;;8.90;99.90;;;;;;4909083;29;20030;-73
2023/04/11 06:54:39;;;;;;;3.42;0.60;;;8.90;99.90;;;;;;4923878;29;20103;-74
2023/04/11 06:57:05;;;;;;;3.33;0.60;;;9.00;99.90;;;;;;4908963;29;20031;-75
2023/04/11 06:59:31;;;;;;;1.88;0.40;;;9.10;99.90;;;;;;4923989;29;20035;-74
2023/04/11 07:01:58;;;;;;;2.42;0.63;;;9.20;99.90;;;;;;4928018;29;20035;-75
2023/04/11 07:04:26;;;;;;;2.97;0.63;;;9.30;99.90;;;;;;4943879;29;20095;-74
2023/04/11 07:06:52;;;;;;;2.35;0.50;;;9.40;99.90;;;;;;4928782;29;20066;-74
2023/04/11 07:09:17;;;;;;;3.55;0.60;;;9.50;99.90;;;;;;4928976;29;20028;-74
2023/04/11 07:11:46;;;;;;;;;;;9.60;99.90;;;;;;4928962;29;20028;-74
2023/04/11 07:14:15;;;;;;;4.53;1.00;;;9.70;99.90;;;;;;4929082;29;19942;-74
2023/04/11 07:16:49;;;;;;;2.17;0.63;;;9.80;99.90;;;;;;4931878;29;20036;-72
2023/04/11 07:19:15;;;;;;;3.33;0.60;;;10.00;99.90;;;;;;4934418;29;20064;-73
2023/04/11 07:21:47;;;;;;;1.40;0.45;;;10.00;99.90;;;;;;4948063;29;20229;-73
2023/04/11 07:24:17;;;;;;;2.50;0.95;;;10.00;99.90;;;;;;4944501;29;20046;-74
2023/04/11 07:26:45;;;;;;;5.03;0.55;;;9.90;99.90;;;;;;4928186;29;20040;-74
2023/04/11 07:29:10;;;;;;;3.53;0.80;;;10.00;99.90;;;;;;4928882;29;20039;-73
2023/04/11 07:31:54;;;;;;;6.22;1.00;;;10.10;99.90;;;;;;4928253;29;20032;-75
2023/04/11 07:34:20;;;;;;;5.38;0.60;;;10.10;99.90;;;;;;4928649;29;20040;-73
2023/04/11 07:36:48;;;;;;;2.47;0.57;;;10.20;99.90;;;;;;4940622;29;20282;-75
2023/04/11 07:39:17;;;;;;;3.08;0.70;;;10.20;99.90;;;;;;4928423;29;20133;-74
2023/04/11 07:41:47;;;;;;;3.03;0.70;;;10.50;99.90;;;;;;4941418;29;20083;-75
2023/04/11 07:44:15;;;;;;;7.40;1.42;;;10.70;99.90;;;;;;4928410;29;20039;-73
2023/04/11 07:46:41;;;;;;;3.40;0.80;;;10.80;99.90;;;;;;4926458;29;20027;-74
2023/04/11 07:49:07;;;;;;;3.13;1.15;;;10.90;99.90;;;;;;4926956;29;20218;-73
2023/04/11 07:51:39;;;;;;;5.10;0.80;;;11.00;99.90;;;;;;4942305;29;20091;-74
2023/04/11 07:54:23;;;;;;;2.22;0.55;;;11.10;99.90;;;;;;4941931;29;20044;-74
2023/04/11 07:56:53;;;;;;;5.03;0.85;;;11.20;99.90;;;;;;4927422;29;20255;-75
2023/04/11 07:59:21;;;;;;;6.50;1.08;;;11.30;99.90;;;;;;4927803;29;20028;-74
2023/04/11 08:01:58;;;;;;;4.20;0.73;;;11.10;99.90;;;;;;4925948;29;20039;-73
2023/04/11 08:04:49;;;;;;;5.60;0.90;;;11.20;99.90;;;;;;4939414;29;20111;-74
2023/04/11 08:07:18;;;;;;;3.97;0.68;;;11.30;99.90;;;;;;4927709;29;20031;-74
2023/04/11 08:09:44;;;;;;;4.93;0.70;;;11.30;99.90;;;;;;4942374;29;20068;-73
2023/04/11 08:12:19;;;;;;;4.03;0.60;;;11.30;98.60;;;;;;4942174;29;20032;-74
2023/04/11 08:14:52;;;;;;;8.98;1.02;;;11.50;99.70;;;;;;4926554;29;20035;-73
2023/04/11 08:17:27;;;;;;;6.50;1.00;;;11.60;99.40;;;;;;4926704;29;20035;-74
2023/04/11 08:20:04;;;;;;;8.55;0.90;;;11.70;98.60;;;;;;4941913;29;20032;-75
2023/04/11 08:22:33;;;;;;;2.50;0.70;;;11.90;98.30;;;;;;4926164;29;20051;-72
2023/04/11 08:25:23;;;;;;;5.43;0.80;;;12.20;98.50;;;;;;4939543;29;20214;-72
2023/04/11 08:27:58;;;;;;;3.75;0.90;;;12.50;97.30;;;;;;4927624;29;20058;-74
2023/04/11 08:30:26;;;;;;;5.20;0.80;;;12.40;96.40;;;;;;4927663;29;20095;-74
2023/04/11 08:32:55;;;;;;;6.82;1.08;;;12.10;95.50;;;;;;4936075;29;20071;-72
2023/04/11 08:35:24;;;;;;;;;;;11.90;95.90;;;;;;4928075;29;20032;-74
2023/04/11 08:37:56;;;;;;;4.63;0.85;;;11.90;96.30;;;;;;4941721;29;19907;-73
2023/04/11 08:40:26;;;;;;;4.82;0.95;;;12.00;96.10;;;;;;4927155;29;20040;-73
2023/04/11 08:42:58;;;;;;;7.13;1.33;;;12.00;95.00;;;;;;4925790;29;20333;-73
2023/04/11 08:45:36;;;;;;;4.95;0.80;;;12.00;94.00;;;;;;4941846;29;20047;-73
2023/04/11 08:48:02;;;;;;;4.53;0.77;;;11.80;93.90;;;;;;4927014;29;20197;-73
2023/04/11 08:50:30;;;;;;;3.67;0.93;;;11.80;94.40;;;;;;4927266;29;20040;-74
2023/04/11 08:53:02;;;;;;;;;;;12.00;93.80;;;;;;4927184;29;20043;-74
2023/04/11 08:55:49;;;;;;;5.40;0.82;;;12.00;93.60;;;;;;4941716;29;19929;-74
2023/04/11 08:58:15;;;;;;;5.22;0.85;;;12.20;93.30;;;;;;4927218;29;20032;-74
2023/04/11 09:00:44;;;;;;;8.40;1.10;;;12.40;92.70;;;;;;4926315;29;20060;-74
2023/04/11 09:03:19;;;;;;;;;;;12.30;92.20;;;;;;4926716;29;20191;-74
2023/04/11 09:05:48;;;;;;;5.40;1.00;;;12.20;92.80;;;;;;4926561;29;20074;-73
2023/04/11 09:08:20;;;;;;;2.75;0.73;;;12.50;92.00;;;;;;4940169;29;20129;-72
2023/04/11 09:10:46;;;;;;;3.80;0.70;;;12.60;91.60;;;;;;4926033;29;20046;-73
2023/04/11 09:13:25;;;;;;;4.10;0.80;;;12.80;91.10;;;;;;4926362;29;20032;-73
2023/04/11 09:16:09;;;;;;;7.63;0.75;;;13.00;91.20;;;;;;4925863;29;20040;-73
2023/04/11 09:18:43;;;;;;;5.80;0.73;;;12.90;90.20;;;;;;4926200;29;20051;-72
2023/04/11 09:21:14;;;;;;;5.00;0.82;;;12.90;89.90;;;;;;4925677;29;20310;-73
2023/04/11 09:23:41;;;;;;;5.35;1.45;;;12.90;89.70;;;;;;4925520;29;20409;-74
2023/04/11 09:26:11;;;;;;;7.10;1.00;;;13.00;89.20;;;;;;4925170;29;20020;-73
2023/04/11 09:28:41;;;;;;;3.85;0.65;;;12.90;88.60;;;;;;4925959;29;20036;-72
2023/04/11 09:31:09;;;;;;;4.82;0.75;;;13.10;88.20;;;;;;4940686;29;20318;-72
2023/04/11 09:33:35;;;;;;;5.22;0.82;;;13.30;88.80;;;;;;4926114;29;20262;-72
2023/04/11 09:36:16;;;;;;;8.32;1.10;;;13.10;89.20;;;;;;4926824;29;20032;-72
2023/04/11 09:38:50;;;;;;;3.90;0.90;;;13.10;88.70;;;;;;4909057;29;20035;-74
2023/04/11 09:41:30;;;;;;;4.68;0.70;;;13.10;88.40;;;;;;4926528;29;20258;-73
2023/04/11 09:44:02;;;;;;;4.95;0.80;;;13.00;88.20;;;;;;4925039;29;20075;-73
2023/04/11 09:46:33;;;;;;;2.55;0.63;;;13.10;88.00;;;;;;4914966;29;20349;-73
2023/04/11 09:49:01;;;;;;;3.05;0.65;;;13.00;87.10;;;;;;4925916;29;20040;-72
2023/04/11 09:51:31;;;;;;;4.70;0.60;;;13.30;88.00;;;;;;4926384;29;20040;-74
2023/04/11 09:54:00;;;;;;;5.03;0.73;;;13.50;86.40;;;;;;4940504;29;20133;-72
2023/04/11 09:56:27;;;;;;;3.80;0.80;;;13.50;86.20;;;;;;4924630;29;20388;-73
2023/04/11 09:59:07;;;;;;;4.70;0.55;;;13.30;84.50;;;;;;4940243;29;20040;-74
2023/04/11 10:02:11;;;;;;;4.32;0.65;;;13.20;85.00;;;;;;4925405;29;20028;-73
2023/04/11 10:04:43;;;;;;;3.88;0.90;;;13.50;84.60;;;;;;4921992;29;20036;-73
2023/04/11 10:07:16;;;;;;;5.63;0.70;;;13.80;84.10;;;;;;4925955;29;20063;-73
2023/04/11 10:09:54;;;;;;;5.70;1.00;;;13.50;85.20;;;;;;4924138;29;20040;-72
2023/04/11 10:12:32;;;;;;;2.90;0.65;;;13.70;83.60;;;;;;4924988;29;20333;-72
2023/04/11 10:15:08;;;;;;;3.17;0.60;;;14.10;83.40;;;;;;4925445;29;20024;-72
2023/04/11 10:17:35;;;;;;;4.32;0.75;;;14.10;83.20;;;;;;4926295;29;20115;-72
2023/04/11 10:20:25;;;;;;;5.30;0.95;;;14.20;83.40;;;;;;4924078;29;20221;-71
2023/04/11 10:23:14;;;;;;;4.28;0.98;;;14.30;82.00;;;;;;4936890;29;20225;-72
2023/04/11 10:26:16;;;;;;;3.72;0.60;;;14.00;82.40;;;;;;4930512;29;20040;-72
2023/04/11 10:28:50;;;;;;;5.57;0.80;;;13.80;83.70;;;;;;4885795;29;20048;-73
2023/04/11 10:31:16;;;;;;;3.95;0.65;;;13.60;83.80;;;;;;4871069;29;20264;-72
2023/04/11 10:34:34;;;;;;;3.22;0.70;;;13.50;84.90;;;;;;4886251;29;20096;-72
2023/04/11 10:37:27;;;;;;;6.85;0.95;;;13.10;86.90;;;;;;4850982;29;20355;-71
2023/04/11 10:40:13;;;;;;;2.53;0.70;;;13.20;90.10;;;;;;4908266;29;20055;-71
2023/04/11 10:42:48;;;;;;;4.43;0.60;;;13.30;89.80;;;;;;4908409;29;20059;-73
2023/04/11 10:45:39;;;;;;;5.82;1.10;;;13.40;88.50;;;;;;4908466;29;20086;-73
2023/04/11 10:49:04;;;;;;;4.72;0.80;;;13.40;88.40;;;;;;4871289;29;20357;-71
2023/04/11 10:51:38;;;;;;;4.00;1.00;;;13.40;88.80;;;;;;4862257;29;20040;-74
2023/04/11 10:54:48;;;;;;;5.10;1.00;;;13.80;88.10;;;;;;4907444;29;20298;-74
2023/04/11 10:57:22;;;;;;;4.05;0.85;;;14.20;87.60;;;;;;4842011;29;20235;-73
2023/04/11 11:03:29;;;;;;;6.28;0.80;;;14.20;86.50;;;;;;4903486;29;20056;-73
2023/04/11 11:06:25;;;;;;;3.05;0.70;;;14.40;85.30;;;;;;4907909;29;20341;-73
2023/04/11 11:09:22;;;;;;;4.15;0.82;;;15.00;82.60;;;;;;4927462;29;20087;-72
2023/04/11 11:12:29;;;;;;;3.78;0.88;;;14.70;80.40;;;;;;4943388;29;20043;-71
2023/04/11 11:15:16;;;;;;;8.38;0.93;;;15.10;79.40;;;;;;4889249;29;20386;-74
2023/04/11 11:17:48;;;;;;;3.35;0.60;;;15.20;75.90;;;;;;4888967;29;20037;-73
2023/04/11 11:20:30;;;;;;;3.33;0.57;;;14.80;74.50;;;;;;4889163;29;20068;-73
2023/04/11 11:23:11;;;;;;;2.30;0.50;;;14.80;75.40;;;;;;4888822;29;20072;-72
2023/04/11 11:25:56;;;;;;;3.40;0.88;;;14.80;75.60;;;;;;4904847;29;20061;-74
2023/04/11 11:28:47;;;;;;;4.72;0.80;;;15.10;75.70;;;;;;4879517;29;20045;-73
2023/04/11 11:31:15;;;;;;;3.95;0.80;;;15.60;74.10;;;;;;4889222;29;20108;-73
2023/04/11 11:33:59;;;;;;;4.55;1.25;;;15.80;72.60;;;;;;4888958;29;20033;-76
2023/04/11 11:36:28;;;;;;;;;;;15.60;73.50;;;;;;4889586;29;20049;-73
2023/04/11 11:38:56;;;;;;;4.03;0.95;;;15.60;72.70;;;;;;4904267;29;19942;-73
2023/04/11 11:41:26;;;;;;;;;;;15.80;72.00;;;;;;4889508;29;20040;-73
2023/04/11 11:51:02;;;;;;;5.97;0.75;;;16.70;69.70;;;;;;4889172;29;20032;-72
2023/04/11 11:53:28;;;;;;;6.03;0.77;;;17.10;67.60;;;;;;4928411;29;20039;-73
2023/04/11 11:55:55;;;;;;;4.13;0.90;;;16.70;68.80;;;;;;4927739;29;20231;-73
2023/04/11 11:58:56;;;;;;;3.30;0.70;;;17.40;68.50;;;;;;4927944;29;20032;-73
2023/04/11 12:01:47;;;;;;;4.13;0.82;;;18.00;67.50;;;;;;4927177;29;20047;-74
2023/04/11 12:04:13;;;;;;;5.15;0.55;;;18.60;66.00;;;;;;4890416;29;20060;-72
2023/04/11 12:07:10;;;;;;;3.67;0.82;;;19.30;63.00;;;;;;4890478;29;20311;-72
2023/04/11 12:13:39;;;;;;;2.80;0.70;;;19.60;61.90;;;;;;4932941;29;20486;-74
2023/04/11 12:16:20;;;;;;;4.13;0.85;;;19.50;61.40;;;;;;4913254;29;20082;-72
2023/04/11 12:18:49;;;;;;;6.20;0.90;;;18.30;63.80;;;;;;4945231;29;20110;-74
2023/04/11 12:21:16;;;;;;;3.88;0.80;;;18.00;64.50;;;;;;4946662;29;20369;-72
2023/04/11 12:23:42;;;;;;;4.67;1.00;;;17.80;64.70;;;;;;4925740;29;20111;-71
2023/04/11 12:26:11;;;;;;;3.78;0.82;;;17.40;64.80;;;;;;4925000;29;20044;-73
2023/04/11 12:29:02;;;;;;;3.97;0.85;;;17.30;64.50;;;;;;4944071;29;20030;-73
2023/04/11 12:31:30;;;;;;;2.67;0.60;;;17.50;65.40;;;;;;4946776;29;20059;-73
2023/04/11 12:34:11;;;;;;;3.45;0.70;;;17.90;64.50;;;;;;4929321;29;20032;-73
2023/04/11 12:36:37;;;;;;;2.70;0.68;;;17.80;64.40;;;;;;4946306;29;20036;-72
2023/04/11 12:39:06;;;;;;;2.83;0.47;;;17.70;64.40;;;;;;4928922;29;20054;-71
2023/04/11 12:41:31;;;;;;;3.13;0.75;;;17.60;64.20;;;;;;4946414;29;20038;-74
2023/04/11 12:44:01;;;;;;;6.60;0.80;;;16.90;66.00;;;;;;4945860;29;20044;-72
2023/04/11 12:46:26;;;;;;;4.70;0.55;;;16.50;66.10;;;;;;4945386;29;20251;-71
2023/04/11 12:48:52;;;;;;;3.88;0.80;;;16.00;67.50;;;;;;4945623;29;20040;-72
2023/04/11 12:51:20;;;;;;;4.00;0.88;;;15.90;67.70;;;;;;4946401;29;20337;-72
2023/04/11 12:53:46;;;;;;;4.35;0.95;;;15.90;68.10;;;;;;4946179;29;20110;-72
2023/04/11 12:56:12;;;;;;;1.85;0.60;;;16.30;66.80;;;;;;4946102;29;20043;-72
2023/04/11 12:58:38;;;;;;;6.65;0.75;;;16.70;66.00;;;;;;4944458;29;20098;-71
2023/04/11 13:01:05;;;;;;;4.13;0.68;;;17.10;65.00;;;;;;4945425;29;20032;-73
2023/04/11 13:03:48;;;;;;;2.53;0.63;;;17.30;64.60;;;;;;4945113;29;20051;-72
2023/04/11 13:06:27;;;;;;;4.05;0.75;;;17.50;63.60;;;;;;4945521;29;20027;-73
2023/04/11 13:08:56;;;;;;;4.60;0.88;;;17.20;63.70;;;;;;4944329;29;20027;-72
2023/04/11 13:11:22;;;;;;;3.25;0.73;;;16.70;64.70;;;;;;4945541;29;20027;-72
2023/04/11 13:13:52;;;;;;;3.97;0.50;;;16.30;65.60;;;;;;4945232;29;20035;-72
2023/04/11 13:16:21;;;;;;;4.65;0.93;;;16.60;65.20;;;;;;4945547;29;20064;-71
2023/04/11 13:18:47;;;;;;;3.35;0.85;;;17.10;64.20;;;;;;4945699;29;20044;-73
2023/04/11 13:21:24;;;;;;;4.28;0.85;;;17.50;63.60;;;;;;4944060;29;20052;-72
2023/04/11 13:23:55;;;;;;;3.03;0.63;;;17.30;62.40;;;;;;4944810;29;20138;-72
2023/04/11 13:26:24;;;;;;;5.47;0.80;;;17.80;62.40;;;;;;4944261;29;20031;-72
2023/04/11 13:28:53;;;;;;;3.85;0.82;;;17.70;60.70;;;;;;4944112;29;20090;-73
2023/04/11 13:31:42;;;;;;;4.60;0.93;;;18.20;60.30;;;;;;4944986;29;20047;-73
2023/04/11 13:34:28;;;;;;;5.60;0.80;;;18.30;59.60;;;;;;4944506;29;20039;-73
2023/04/11 13:36:58;;;;;;;4.82;0.90;;;18.30;60.30;;;;;;4927956;29;20258;-74
2023/04/11 13:39:23;;;;;;;3.58;0.65;;;19.10;59.40;;;;;;4945280;29;20040;-72
2023/04/11 13:41:51;;;;;;;4.70;1.02;;;19.90;57.50;;;;;;4945497;29;20138;-72
2023/04/11 13:44:18;;;;;;;2.88;0.75;;;20.40;57.00;;;;;;4928177;29;20218;-72
2023/04/11 13:47:12;;;;;;;2.53;0.70;;;21.10;55.70;;;;;;4945528;29;20100;-73
2023/04/11 13:49:40;;;;;;;2.45;0.70;;;21.50;55.30;;;;;;4945326;29;20031;-73
2023/04/11 13:52:06;;;;;;;2.38;0.60;;;22.10;54.10;;;;;;4944784;29;20091;-73
2023/04/11 13:54:31;;;;;;;3.28;0.60;;;23.10;52.70;;;;;;4945181;29;20326;-73
2023/04/11 13:56:58;;;;;;;3.55;0.77;;;22.80;52.60;;;;;;4944470;29;20100;-72
2023/04/11 13:59:31;;;;;;;3.50;0.80;;;22.90;51.70;;;;;;4943703;29;20055;-71
2023/04/11 14:02:01;;;;;;;3.22;0.90;;;22.30;52.90;;;;;;4944081;29;20039;-73
2023/04/11 14:04:28;;;;;;;2.92;0.80;;;21.70;52.90;;;;;;4928352;29;20043;-73
2023/04/11 14:06:54;;;;;;;2.00;0.50;;;21.10;53.00;;;;;;4944165;29;20071;-73
2023/04/11 14:09:20;;;;;;;2.95;0.60;;;21.00;54.10;;;;;;4943602;29;20047;-73
2023/04/11 14:11:46;;;;;;;4.43;0.90;;;21.40;53.00;;;;;;4947998;29;20031;-73
2023/04/11 14:14:14;;;;;;;2.78;0.60;;;22.50;52.30;;;;;;4948118;29;20050;-74
2023/04/11 14:16:40;;;;;;;;;;;22.60;50.70;;;;;;4948497;29;20227;-73
2023/04/11 14:19:08;;;;;;;3.63;0.82;;;21.70;51.80;;;;;;4948091;29;19942;-73
2023/04/11 14:21:37;;;;;;;;;;;22.00;52.10;;;;;;4948246;29;20351;-73
2023/04/11 14:24:09;;;;;;;3.42;0.98;;;22.60;50.50;;;;;;4947985;29;19911;-73
2023/04/11 14:26:35;;;;;;;3.13;0.80;;;22.90;50.20;;;;;;4931833;29;20040;-73
2023/04/11 14:29:03;;;;;;;4.60;0.60;;;22.30;49.90;;;;;;4947982;29;20036;-74
2023/04/11 14:31:29;;;;;;;3.03;0.68;;;22.80;49.80;;;;;;4948664;29;20317;-74
2023/04/11 14:33:55;;;;;;;3.78;1.20;;;22.00;51.00;;;;;;4947896;29;20086;-73
2023/04/11 14:36:27;;;;;;;3.28;0.70;;;22.60;50.50;;;;;;4948457;29;20053;-73
2023/04/11 14:39:04;;;;;;;2.78;0.47;;;23.40;49.80;;;;;;4948765;29;20047;-73
2023/04/11 14:41:30;;;;;;;3.33;0.60;;;22.70;49.20;;;;;;4931570;29;20243;-73
2023/04/11 14:43:59;;;;;;;3.08;0.90;;;21.80;51.20;;;;;;4947538;29;20036;-73
2023/04/11 14:46:26;;;;;;;2.80;0.63;;;20.60;51.80;;;;;;4946697;29;20039;-72
2023/04/11 14:48:52;;;;;;;3.17;0.77;;;19.60;53.30;;;;;;4948152;29;20031;-74
2023/04/11 14:51:30;;;;;;;3.28;0.90;;;20.50;52.60;;;;;;4933222;29;20043;-73
2023/04/11 14:53:56;;;;;;;3.05;0.50;;;20.50;51.40;;;;;;4947548;29;20043;-73
2023/04/11 14:56:31;;;;;;;3.35;0.80;;;20.70;51.30;;;;;;4948316;29;20100;-73
2023/04/11 14:59:00;;;;;;;2.97;0.77;;;20.50;51.40;;;;;;4948033;29;20036;-73
2023/04/11 15:01:29;;;;;;;3.80;0.90;;;20.60;52.20;;;;;;4912187;29;20091;-73
2023/04/11 15:04:01;;;;;;;4.13;0.52;;;21.90;51.40;;;;;;4962882;29;20106;-73
2023/04/11 15:06:27;;;;;;;3.58;0.65;;;21.80;50.00;;;;;;4967066;29;20100;-73
2023/04/11 15:09:03;;;;;;;3.65;0.70;;;22.00;49.30;;;;;;4966083;29;20221;-73
2023/04/11 15:11:29;;;;;;;4.38;0.60;;;21.90;49.50;;;;;;4967214;29;20087;-73
2023/04/11 15:13:55;;;;;;;3.88;0.60;;;21.90;49.40;;;;;;4966547;29;20038;-74
2023/04/11 15:16:24;;;;;;;3.35;0.80;;;21.20;51.20;;;;;;4966772;29;20089;-73
2023/04/11 15:18:50;;;;;;;3.05;0.60;;;21.30;51.40;;;;;;4967073;29;20090;-74
2023/04/11 15:21:18;;;;;;;4.05;0.98;;;21.80;51.30;;;;;;4966629;28;20043;-73
2023/04/11 15:23:44;;;;;;;2.92;0.70;;;22.20;51.70;;;;;;4966636;29;20054;-72
2023/04/11 15:26:22;;;;;;;3.47;1.00;;;22.20;51.00;;;;;;4949055;29;20162;-73
2023/04/11 15:28:47;;;;;;;4.32;0.73;;;22.00;50.40;;;;;;4966586;29;20048;-72
2023/04/11 15:31:26;;;;;;;3.50;1.10;;;20.90;52.00;;;;;;4966336;29;20039;-73
2023/04/11 15:34:07;;;;;;;4.70;1.05;;;20.80;53.00;;;;;;4966385;29;20039;-72
2023/04/11 15:36:51;;;;;;;3.88;0.68;;;20.90;52.20;;;;;;4966512;29;20028;-72
2023/04/11 15:40:04;;;;;;;5.47;0.95;;;20.40;52.80;;;;;;4953194;29;20105;-73
2023/04/11 15:42:32;;;;;;;;;;;19.70;53.50;;;;;;4967037;29;20031;-74
2023/04/11 15:45:08;;;;;;;4.25;0.80;;;19.20;54.90;;;;;;4949695;29;19910;-74
2023/04/11 15:47:39;;;;;;;4.63;1.05;;;19.40;54.90;;;;;;4966825;29;20058;-73
2023/04/11 15:50:08;;;;;;;4.57;1.08;;;20.00;54.50;;;;;;4965635;29;20329;-72
2023/04/11 15:52:41;;;;;;;4.82;0.77;;;21.00;54.00;;;;;;4949370;29;20042;-73
2023/04/11 15:55:09;;;;;;;4.18;0.63;;;21.60;51.90;;;;;;4966234;29;20063;-73
2023/04/11 15:57:38;;;;;;;4.07;0.65;;;22.10;51.00;;;;;;4965181;29;20197;-74
2023/04/11 16:00:10;;;;;;;2.83;0.80;;;21.70;51.00;;;;;;4965831;29;20094;-72
2023/04/11 16:02:45;;;;;;;4.82;0.70;;;21.70;50.70;;;;;;4965758;29;20063;-73
2023/04/11 16:05:14;;;;;;;5.78;0.90;;;21.10;50.50;;;;;;4964698;29;20031;-72
2023/04/11 16:07:42;;;;;;;4.43;0.80;;;20.90;51.40;;;;;;4966370;29;20030;-74
2023/04/11 16:10:08;;;;;;;3.92;0.50;;;21.70;51.00;;;;;;4965071;29;20054;-73
2023/04/11 16:12:41;;;;;;;3.97;0.65;;;21.40;50.80;;;;;;4966158;29;20062;-71
2023/04/11 16:15:35;;;;;;;;;;;21.50;51.00;;;;;;4952666;29;20108;-73
2023/04/11 16:18:03;;;;;;;4.50;1.10;;;21.00;51.40;;;;;;4965448;29;19913;-74
2023/04/11 16:20:32;;;;;;;4.00;0.77;;;21.00;52.80;;;;;;4970556;29;20031;-73
2023/04/11 16:23:26;;;;;;;4.78;0.90;;;21.60;51.60;;;;;;4957336;29;20351;-75
2023/04/11 16:25:52;;;;;;;6.00;1.00;;;21.50;51.10;;;;;;4972327;29;20090;-71
2023/04/11 16:28:23;;;;;;;2.83;0.80;;;20.10;52.40;;;;;;4966272;29;20305;-74
2023/04/11 16:30:48;;;;;;;3.03;0.88;;;19.50;53.40;;;;;;4948754;29;20078;-74
2023/04/11 16:33:20;;;;;;;4.47;0.90;;;18.90;54.60;;;;;;4964710;28;20039;-74
2023/04/11 16:35:45;;;;;;;3.60;0.93;;;18.40;55.60;;;;;;4964588;29;20038;-73
2023/04/11 16:38:11;;;;;;;5.68;1.05;;;17.50;56.50;;;;;;4965264;29;20201;-73
2023/04/11 16:40:42;;;;;;;3.83;1.02;;;17.00;57.70;;;;;;4965794;29;20101;-74
2023/04/11 16:43:08;;;;;;;2.75;0.82;;;16.90;58.00;;;;;;4965077;29;20213;-74
2023/04/11 16:45:34;;;;;;;3.40;1.30;;;16.60;58.30;;;;;;4965170;29;20027;-74
2023/04/11 16:48:00;;;;;;;6.15;1.23;;;16.40;59.50;;;;;;4964088;28;20082;-73
2023/04/11 16:50:38;;;;;;;3.97;0.90;;;16.00;59.60;;;;;;4965115;29;20043;-73
2023/04/11 16:53:06;;;;;;;3.10;0.63;;;16.00;59.80;;;;;;4964781;29;20352;-75
2023/04/11 16:55:32;;;;;;;4.80;1.17;;;15.80;60.60;;;;;;4964044;29;20220;-73
2023/04/11 16:57:58;;;;;;;3.72;0.63;;;15.80;60.90;;;;;;4965228;29;20023;-73
2023/04/11 17:00:32;;;;;;;3.70;1.08;;;15.60;60.80;;;;;;4964738;29;20054;-73
2023/04/11 17:03:01;;;;;;;5.93;0.70;;;15.50;61.30;;;;;;4964195;29;20058;-74
2023/04/11 17:06:27;;;;;;;4.40;0.82;;;15.20;61.90;;;;;;4932365;29;20520;-72
2023/04/11 17:09:15;;;;;;;4.55;0.95;;;15.10;62.70;;;;;;4964519;29;20027;-74
2023/04/11 17:12:05;;;;;;;5.75;0.88;;;15.00;62.50;;;;;;4965042;29;20035;-73
2023/04/11 17:14:33;;;;;;;3.45;0.77;;;14.90;63.10;;;;;;4948040;29;20035;-74
2023/04/11 17:17:27;;;;;;;3.55;0.90;;;14.80;63.40;;;;;;4946297;29;20047;-74
2023/04/11 17:20:11;;;;;;;7.28;1.30;;;14.70;64.40;;;;;;4949812;29;20062;-73
2023/04/11 17:22:45;;;;;;;5.72;1.17;;;14.60;64.40;;;;;;4946441;29;20046;-73
2023/04/11 17:25:16;;;;;;;3.97;0.93;;;14.60;64.80;;;;;;4962143;29;20039;-74
2023/04/11 17:28:08;;;;;;;5.22;1.13;;;14.60;65.30;;;;;;4965255;29;20083;-73
2023/04/11 17:30:57;;;;;;;3.83;1.30;;;14.40;64.70;;;;;;4963662;29;20067;-73
2023/04/11 17:33:33;;;;;;;4.28;1.05;;;14.20;65.90;;;;;;4946779;29;20367;-73
2023/04/11 17:36:27;;;;;;;3.53;0.93;;;14.10;65.60;;;;;;4964710;29;20035;-73
2023/04/11 17:38:55;;;;;;;4.88;1.17;;;14.00;66.10;;;;;;4961710;29;20057;-74
2023/04/11 17:41:22;;;;;;;;;;;13.90;66.90;;;;;;4964498;29;20089;-72
2023/04/11 17:43:48;;;;;;;6.22;1.30;;;13.90;66.80;;;;;;4964542;29;19914;-73
2023/04/11 17:46:26;;;;;;;3.47;0.93;;;13.80;67.00;;;;;;4963249;28;20046;-73
2023/04/11 17:49:00;;;;;;;5.47;0.93;;;13.70;67.50;;;;;;4964284;29;20039;-73
2023/04/11 17:51:35;;;;;;;4.50;1.00;;;13.50;67.90;;;;;;4962058;29;20290;-73
2023/04/11 17:54:01;;;;;;;4.38;0.90;;;13.40;68.10;;;;;;4964546;29;20225;-73
2023/04/11 17:57:21;;;;;;;3.08;1.00;;;13.30;68.50;;;;;;4946489;29;20050;-74
2023/04/11 17:59:50;;;;;;;5.65;1.00;;;13.20;68.90;;;;;;4964519;29;20055;-74
2023/04/11 18:02:31;;;;;;;5.93;1.17;;;13.10;69.40;;;;;;4943542;29;20048;-75
2023/04/11 18:04:59;;;;;;;6.00;1.48;;;13.00;69.60;;;;;;4957583;29;20059;-74
2023/04/11 18:07:30;;;;;;;6.65;1.23;;;12.90;69.50;;;;;;4943478;29;20105;-73
2023/04/11 18:10:27;;;;;;;4.95;1.38;;;12.90;70.20;;;;;;4923965;29;20064;-73
2023/04/11 18:12:56;;;;;;;5.15;1.40;;;12.90;70.90;;;;;;4922251;29;20215;-75
2023/04/11 18:15:38;;;;;;;7.25;1.35;;;12.90;70.60;;;;;;4944477;29;20040;-74
2023/04/11 18:18:08;;;;;;;6.20;1.33;;;12.80;70.70;;;;;;4943845;29;20046;-72
2023/04/11 18:20:37;;;;;;;5.03;1.30;;;12.70;70.60;;;;;;4944909;29;20039;-74
2023/04/11 18:23:08;;;;;;;4.05;1.40;;;12.70;71.10;;;;;;4944587;29;20095;-73
2023/04/11 18:25:40;;;;;;;9.15;1.98;;;12.60;71.30;;;;;;4944988;29;20340;-75
2023/04/11 18:28:11;;;;;;;5.07;1.20;;;12.40;71.90;;;;;;4945078;29;20035;-75
2023/04/11 18:30:37;;;;;;;4.60;1.40;;;12.30;72.00;;;;;;4944961;29;20040;-75
2023/04/11 18:33:03;;;;;;;5.65;1.33;;;12.30;72.70;;;;;;4959463;29;20083;-74
2023/04/11 18:35:29;;;;;;;5.80;1.58;;;12.30;72.20;;;;;;4959167;29;20047;-74
2023/04/11 18:37:54;;;;;;;4.32;1.25;;;12.30;72.20;;;;;;4945035;29;20039;-74
2023/04/11 18:40:23;;;;;;;4.22;1.45;;;12.20;72.30;;;;;;4944343;29;20087;-72